x

Cape Edgecumbe - 25nm Ssw Of Cape Edgecumbe, Ak (46084) Wave Buoy

12:50pm - Thu 24th Apr 2014 All times are AKDT. -8 hours from GMT.

  • Sig Wave height 6.6ft
  • Peak Period 16s
  • Average Period 8s
  • Wind
    13mph, 18mph gusts
  • Sea Temp 44°f
  • Air Temp 42°f
  • Sea Pressure 1006.4mb
  • Cape Edgecumbe - 25nm Ssw Of Cape Edgecumbe, Ak
  • Cape Edgecumbe - 25nm Ssw Of Cape Edgecumbe, Ak

More Historic Weather Station data

Upgrade to MSW Pro to gain access to the past 30 days of data for over 8000 Wavebouys and Weather Stations around the globe.

Join Pro

Comparision Forecast

View Surf forecast
   
Thu 04/24 12:50pm 6.5ft 16s 8s 13 18 mph 1006.4mb 44f 42f
11:50am 6ft 15s 9s 13 16 mph 1006.2mb 44f 42f
10:50am 6.5ft 16s 9s 13 16 mph 1005.9mb 44f 42f
9:50am 6ft 15s 9s 9 11 mph 1005.8mb 44f 41f
8:50am 6.5ft 15s 9s 11 16 mph 1005.5mb 44f 41f
7:50am 6ft 16s 9s 9 13 mph 1005.5mb 44f 41f
6:50am 4.5ft 16s 7s 13 16 mph 1005.5mb 44f 41f
5:50am 4.5ft 16s 8s 13 16 mph 1005.4mb 44f 41f
4:50am 4.5ft 15s 7s 9 11 mph 1005.6mb 44f 42f
3:50am 4.5ft 16s 7s 9 13 mph 1005.8mb 44f 41f
2:50am 3.5ft 16s 6s 11 16 mph 1005.8mb 44f 41f
1:50am 3.5ft 16s 6s 11 13 mph 1005.6mb 44f 41f
12:50am 3ft 8s 5s 11 13 mph 1005.5mb 44f 41f
Wed 04/23 11:50pm 3.5ft 16s 6s 11 13 mph 1005.8mb 44f 42f
10:50pm 3.5ft 9s 5s 13 16 mph 1006mb 44f 42f
9:50pm 3.5ft 7s 5s 13 16 mph 1006.3mb 44f 41f
8:50pm 4ft 15s 6s 13 16 mph 1006.5mb 44f 41f
7:50pm 3.5ft 8s 5s 13 16 mph 1006.7mb 44f 42f
6:50pm 4ft 8s 6s 13 16 mph 1007.2mb 44f 42f
5:50pm 4ft 9s 6s 11 13 mph 1007.6mb 44f 42f
4:50pm 4ft 8s 6s 9 11 mph 1008.2mb 44f 42f
3:50pm 4.5ft 9s 6s 11 13 mph 1008.4mb 44f 42f
2:50pm 4.5ft 9s 7s 7 9 mph 1008.9mb 44f 41f
1:50pm 4.5ft 10s 7s 9 11 mph 1009.1mb 44f 41f
12:50pm 4.5ft 10s 6s 9
mph
1009.3mb 44f 41f
11:50am 4.5ft 9s 6s 11 13 mph 1009mb 44f 41f
10:50am 5ft 10s 6s 11 13 mph 1008.8mb 44f 42f
9:50am 5ft 10s 7s 11 13 mph 1008.7mb 44f 42f
8:50am 5.5ft 11s 6s 9 13 mph 1008.6mb 44f 42f
7:50am 5.5ft 10s 6s 9 11 mph 1008.7mb 44f 42f
6:50am 5ft 10s 6s 11
mph
1008.7mb 44f 42f
5:50am 6ft 10s 7s 9 11 mph 1008.7mb 44f 42f
4:50am 6ft 10s 6s 11 16 mph 1008.9mb 44f 42f
3:50am 6.5ft 11s 6s 11 13 mph 1009mb 44f 42f
2:50am 6.5ft 11s 6s 13 16 mph 1008.8mb 44f 42f
1:50am 6.5ft 11s 7s 11 13 mph 1008.8mb 44f 42f
12:50am 6.5ft 11s 6s 13 18 mph 1008.8mb 44f 42f
Tue 04/22 11:50pm 7ft 11s 7s 13 16 mph 1008.8mb 44f 42f
10:50pm 6.5ft 11s 6s 16 20 mph 1008.6mb 44f 42f
9:50pm 8ft 11s 7s 16 20 mph 1008.5mb 44f 42f
8:50pm 7ft 11s 6s 18 22 mph 1008.4mb 44f 42f
7:50pm 8ft 11s 6s 18 22 mph 1008.1mb 44f 43f
6:50pm 8ft 11s 6s 20 27 mph 1008.2mb 44f 42f
5:50pm 8ft 11s 6s 20 25 mph 1008.7mb 44f 42f
4:50pm 8ft 11s 6s 22 27 mph 1008.8mb 44f 42f
3:50pm 8ft 11s 6s 20 25 mph 1008.9mb 44f 43f
2:50pm 8ft 11s 6s 20 25 mph 1009.3mb 44f 43f
1:50pm 8ft 11s 6s 20 25 mph 1009.3mb 44f 42f
12:50pm 8.5ft 12s 7s 20 22 mph 1009.4mb 43f 42f
11:50am 8ft 11s 7s 20 25 mph 1009.5mb 43f 42f
10:50am 9ft 12s 7s 20 25 mph 1009.7mb 43f 42f
9:50am 8ft 12s 7s 18 25 mph 1009.8mb 43f 42f
8:50am 9.5ft 11s 8s 18 25 mph 1010.1mb 43f 42f
7:50am 9ft 11s 8s 18 22 mph 1010.8mb 43f 42f
6:50am 10ft 12s 8s 16 20 mph 1011.3mb 43f 42f
5:50am 9ft 13s 8s 18 20 mph 1011.6mb 43f 42f
4:50am 9ft 12s 8s 13 18 mph 1012.3mb 43f 42f
3:50am 10ft 13s 9s 13 16 mph 1013mb 43f 43f
2:50am 10ft 11s 9s 13 16 mph 1013.3mb 43f 43f
1:50am 9.5ft 12s 9s 13 18 mph 1013.9mb 43f 43f
12:50am 9ft 12s 9s 13 16 mph 1014.5mb 43f 43f
Mon 04/21 11:50pm 10.5ft 13s 9s 11 13 mph 1014.9mb 43f 43f
10:50pm 10.5ft 13s 9s 9 11 mph 1015.3mb 43f 43f
9:50pm 10.5ft 12s 9s 7 9 mph 1015.8mb 43f 42f
8:50pm 11ft 12s 8s 4 7 mph 1016mb 44f 42f
7:50pm 10ft 12s 8s 2 4 mph 1016mb 44f 43f
6:50pm 11ft 11s 8s  -  2 mph 1016.3mb 44f 44f
5:50pm 11ft 13s 8s 2 7 mph 1016.4mb 44f 43f
4:50pm 10ft 11s 8s 7 9 mph 1016.6mb 44f 43f
3:50pm 11ft 11s 8s 11 13 mph 1016.9mb 43f 43f
2:50pm 11.5ft 13s 8s 13 16 mph 1017.2mb 43f 43f
1:50pm 10.5ft 12s 8s 9 16 mph 1017.4mb 43f 42f
12:50pm 10ft 10s 8s 16 20 mph 1016.8mb 43f 42f
11:50am 10ft 13s 8s 11 18 mph 1016.3mb 43f 41f
10:50am 10ft 11s 8s 11 13 mph 1015.5mb 43f 43f
9:50am 11ft 11s 7s 13 18 mph 1014.3mb 43f 42f
8:50am 10ft 9s 7s 20 25 mph 1013mb 43f 42f
7:50am 11.5ft 12s 7s 20 25 mph 1011.4mb 43f 42f
6:50am 11ft 10s 7s 22 27 mph 1010.1mb 43f 43f
5:50am 13ft 12s 8s 22 27 mph 1009.5mb 43f 43f
4:50am 11.5ft 11s 8s 18 25 mph 1009mb 43f 44f
3:50am 13ft 12s 8s 16 20 mph 1008.7mb 43f 44f
2:50am 11ft 12s 8s 16 20 mph 1008.2mb 43f 45f
1:50am 11.5ft 13s 8s 16 20 mph 1007.8mb 43f 46f
12:50am 11.5ft 12s 8s 16 20 mph 1007.5mb 43f 46f
Sun 04/20 11:50pm 11ft 11s 8s 16 20 mph 1007.2mb 43f 45f
10:50pm 11ft 10s 8s 16 20 mph 1007.2mb 43f 45f